Time;durP1;ratioP1;P1;durP2;ratioP2;P2;SDS_P1;SDS_P2;PMS_P1;PMS_P2;Temp;Humidity;BMP_temperature;BMP_pressure;BME280_temperature;BME280_humidity;BME280_pressure;Samples;Min_cycle;Max_cycle;Signal;HPM_P1;HPM_P2
2023/10/30 00:00:46;;;;;;;5.05;1.30;;;11.60;85.60;;;;;;5031739;28;20040;-30
2023/10/30 00:03:14;;;;;;;7.35;1.20;;;11.60;85.60;;;;;;5031339;28;20104;-34
2023/10/30 00:05:39;;;;;;;2.97;1.20;;;11.60;85.60;;;;;;5031531;28;20031;-31
2023/10/30 00:08:06;;;;;;;7.65;1.30;;;11.60;85.70;;;;;;5031749;28;20454;-28
2023/10/30 00:10:32;;;;;;;6.47;1.40;;;11.60;85.80;;;;;;5031647;28;20044;-32
2023/10/30 00:12:57;;;;;;;4.03;1.33;;;11.60;85.80;;;;;;5031423;28;20030;-33
2023/10/30 00:15:23;;;;;;;3.95;1.10;;;11.60;85.90;;;;;;5031783;28;20565;-35
2023/10/30 00:17:48;;;;;;;5.28;1.40;;;11.50;85.80;;;;;;5031186;28;20104;-35
2023/10/30 00:20:14;;;;;;;4.50;1.40;;;11.50;85.90;;;;;;5031418;28;20111;-33
2023/10/30 00:22:40;;;;;;;5.22;1.30;;;11.50;85.90;;;;;;5031335;28;20029;-32
2023/10/30 00:25:05;;;;;;;4.80;1.50;;;11.50;86.00;;;;;;5031422;28;20040;-29
2023/10/30 00:27:31;;;;;;;6.78;1.30;;;11.50;86.00;;;;;;5031278;28;20068;-29
2023/10/30 00:29:56;;;;;;;5.97;1.30;;;11.50;86.10;;;;;;5031487;28;20433;-32
2023/10/30 00:32:22;;;;;;;6.00;1.63;;;11.50;86.10;;;;;;5031878;28;20030;-28
2023/10/30 00:34:48;;;;;;;7.80;1.40;;;11.50;86.20;;;;;;5031566;28;20028;-28
2023/10/30 00:37:13;;;;;;;7.75;1.70;;;11.50;86.30;;;;;;5033311;28;20067;-31
2023/10/30 00:39:39;;;;;;;4.45;1.25;;;11.60;86.50;;;;;;5035292;28;20469;-28
2023/10/30 00:42:05;;;;;;;4.30;1.58;;;11.60;86.50;;;;;;5035091;28;20033;-32
2023/10/30 00:44:30;;;;;;;4.78;1.70;;;11.60;86.50;;;;;;5034861;28;20021;-34
2023/10/30 00:46:56;;;;;;;6.15;1.35;;;11.60;86.60;;;;;;5035174;28;20095;-29
2023/10/30 00:49:22;;;;;;;5.80;1.48;;;11.60;86.60;;;;;;5034991;28;20021;-28
2023/10/30 00:51:47;;;;;;;5.78;1.48;;;11.60;86.70;;;;;;5034796;28;20021;-30
2023/10/30 00:54:13;;;;;;;4.93;1.30;;;11.60;86.70;;;;;;5034799;28;20021;-34
2023/10/30 00:56:38;;;;;;;6.53;1.30;;;11.60;86.70;;;;;;5034869;28;20389;-34
2023/10/30 00:59:04;;;;;;;4.30;1.10;;;11.60;86.70;;;;;;5033466;28;20030;-28
2023/10/30 01:01:29;;;;;;;5.22;1.40;;;11.60;86.70;;;;;;5034776;28;20338;-29
2023/10/30 01:03:55;;;;;;;5.13;1.13;;;11.70;86.80;;;;;;5034676;28;20075;-32
2023/10/30 01:06:20;;;;;;;6.25;1.70;;;11.70;86.80;;;;;;5034603;28;20083;-32
2023/10/30 01:08:46;;;;;;;3.88;1.45;;;11.70;86.80;;;;;;5034826;28;20030;-32
2023/10/30 01:11:12;;;;;;;7.15;1.77;;;11.70;86.80;;;;;;5034512;28;20021;-27
2023/10/30 01:13:37;;;;;;;5.82;1.40;;;11.70;86.80;;;;;;5034429;28;20068;-31
2023/10/30 01:16:05;;;;;;;8.65;1.50;;;11.70;86.80;;;;;;5034472;28;20022;-30
2023/10/30 01:18:30;;;;;;;6.22;1.58;;;11.70;86.80;;;;;;5034324;28;20028;-31
2023/10/30 01:20:57;;;;;;;5.32;1.60;;;11.70;86.80;;;;;;5034382;28;20104;-30
2023/10/30 01:23:22;;;;;;;5.50;1.40;;;11.70;86.90;;;;;;5034325;28;20033;-29
2023/10/30 01:25:48;;;;;;;8.43;1.30;;;11.70;86.90;;;;;;5034435;28;20482;-29
2023/10/30 01:28:14;;;;;;;4.78;1.33;;;11.70;86.90;;;;;;5034521;28;20061;-29
2023/10/30 01:30:40;;;;;;;5.25;1.60;;;11.70;86.90;;;;;;5033874;28;20041;-31
2023/10/30 01:33:05;;;;;;;7.25;1.50;;;11.70;87.00;;;;;;5034002;28;20034;-28
2023/10/30 01:35:31;;;;;;;4.50;1.55;;;11.70;87.00;;;;;;5034123;28;20022;-29
2023/10/30 01:37:57;;;;;;;6.00;1.52;;;11.80;87.10;;;;;;5033894;28;20041;-28
2023/10/30 01:40:23;;;;;;;6.75;1.55;;;11.80;87.20;;;;;;5034024;28;20020;-29
2023/10/30 01:42:48;;;;;;;7.65;1.55;;;11.80;87.20;;;;;;5033720;28;20379;-31
2023/10/30 01:45:14;;;;;;;6.20;1.33;;;11.80;87.20;;;;;;5034054;28;20086;-27
2023/10/30 01:47:40;;;;;;;4.45;1.30;;;11.80;87.20;;;;;;5033073;28;20025;-30
2023/10/30 01:50:07;;;;;;;7.88;1.60;;;11.80;87.20;;;;;;5033505;28;20032;-28
2023/10/30 01:52:34;;;;;;;6.20;1.38;;;11.80;87.20;;;;;;5033542;28;20025;-31
2023/10/30 01:55:00;;;;;;;6.40;1.80;;;11.80;87.20;;;;;;5033626;28;20501;-30
2023/10/30 01:57:27;;;;;;;7.70;1.67;;;11.80;87.20;;;;;;5033784;28;20030;-28
2023/10/30 01:59:55;;;;;;;7.68;1.40;;;11.80;87.20;;;;;;5033617;28;20032;-30
2023/10/30 02:02:22;;;;;;;7.40;1.27;;;11.80;87.30;;;;;;5033423;28;20113;-31
2023/10/30 02:04:48;;;;;;;7.07;1.67;;;11.80;87.30;;;;;;5033943;28;20087;-33
2023/10/30 02:07:14;;;;;;;7.40;1.13;;;11.80;87.30;;;;;;5033868;28;20022;-29
2023/10/30 02:09:40;;;;;;;7.60;1.45;;;11.90;87.40;;;;;;5033592;28;20067;-30
2023/10/30 02:12:07;;;;;;;6.60;1.65;;;11.90;87.30;;;;;;5033383;28;20064;-34
2023/10/30 02:14:33;;;;;;;5.35;1.38;;;11.90;87.30;;;;;;5033385;28;20100;-29
2023/10/30 02:16:58;;;;;;;8.20;1.40;;;11.90;87.40;;;;;;5033374;28;20481;-40
2023/10/30 02:19:26;;;;;;;5.25;1.42;;;11.90;87.40;;;;;;5033345;28;20056;-30
2023/10/30 02:21:52;;;;;;;7.78;1.35;;;11.90;87.50;;;;;;5033292;28;20562;-30
2023/10/30 02:24:19;;;;;;;5.60;1.60;;;11.90;87.50;;;;;;5033197;28;20076;-31
2023/10/30 02:26:49;;;;;;;5.68;1.88;;;11.90;87.50;;;;;;5033219;28;20021;-31
2023/10/30 02:29:15;;;;;;;4.78;1.35;;;11.90;87.50;;;;;;5033042;28;20053;-32
2023/10/30 02:31:41;;;;;;;9.23;1.27;;;11.90;87.50;;;;;;5033039;28;20481;-30
2023/10/30 02:34:07;;;;;;;5.82;1.42;;;11.90;87.60;;;;;;5033085;28;20024;-35
2023/10/30 02:36:32;;;;;;;4.55;1.15;;;11.90;87.60;;;;;;5032248;28;20466;-34
2023/10/30 02:38:58;;;;;;;5.75;1.42;;;11.90;87.60;;;;;;5033161;28;20466;-34
2023/10/30 02:41:29;;;;;;;5.97;1.55;;;11.90;87.70;;;;;;5032675;28;20025;-34
2023/10/30 02:43:54;;;;;;;7.45;2.03;;;12.00;87.70;;;;;;5032373;28;20044;-32
2023/10/30 02:46:20;;;;;;;9.70;1.60;;;12.00;87.70;;;;;;5032478;28;20017;-32
2023/10/30 02:48:45;;;;;;;6.60;1.42;;;12.00;87.70;;;;;;5032628;28;20478;-29
2023/10/30 02:51:11;;;;;;;5.32;1.30;;;12.00;87.70;;;;;;5032594;28;20108;-36
2023/10/30 02:53:37;;;;;;;5.18;1.25;;;11.90;87.70;;;;;;5032573;28;20310;-30
2023/10/30 02:56:03;;;;;;;4.00;1.30;;;12.00;87.80;;;;;;5032714;28;20053;-32
2023/10/30 02:58:28;;;;;;;5.05;1.73;;;11.90;87.80;;;;;;5032645;28;20017;-32
2023/10/30 03:00:55;;;;;;;5.60;1.50;;;12.00;87.80;;;;;;5032304;28;20022;-37
2023/10/30 03:03:21;;;;;;;5.68;1.42;;;12.00;87.80;;;;;;5032346;28;20509;-31
2023/10/30 03:05:47;;;;;;;5.18;1.58;;;12.00;87.80;;;;;;5032813;28;20026;-28
2023/10/30 03:08:12;;;;;;;8.07;1.98;;;12.00;87.90;;;;;;5032469;28;20033;-28
2023/10/30 03:10:38;;;;;;;5.97;1.35;;;12.00;88.50;;;;;;5032313;28;20091;-32
2023/10/30 03:13:04;;;;;;;5.32;1.50;;;12.00;87.90;;;;;;5032148;28;20037;-28
2023/10/30 03:15:29;;;;;;;4.65;1.42;;;12.00;87.90;;;;;;5032637;28;20010;-28
2023/10/30 03:17:55;;;;;;;4.05;1.20;;;12.00;87.90;;;;;;5032414;28;20478;-29
2023/10/30 03:20:20;;;;;;;4.15;1.13;;;11.90;87.90;;;;;;5032019;28;20026;-29
2023/10/30 03:22:46;;;;;;;5.10;1.20;;;11.90;87.90;;;;;;5032228;28;20025;-31
2023/10/30 03:25:12;;;;;;;4.78;1.40;;;11.90;87.90;;;;;;5032110;28;20037;-37
2023/10/30 03:27:37;;;;;;;8.70;1.58;;;11.90;87.90;;;;;;5032030;28;20060;-33
2023/10/30 03:30:04;;;;;;;6.60;1.42;;;11.90;87.90;;;;;;5032207;28;20049;-36
2023/10/30 03:32:29;;;;;;;3.63;1.40;;;11.90;87.90;;;;;;5030693;28;20029;-36
2023/10/30 03:34:55;;;;;;;5.60;1.35;;;11.90;87.90;;;;;;5032150;28;20020;-35
2023/10/30 03:37:20;;;;;;;6.63;1.60;;;11.90;88.00;;;;;;5031918;28;20036;-34
2023/10/30 03:39:46;;;;;;;6.05;1.35;;;11.90;88.00;;;;;;5031881;28;20024;-34
2023/10/30 03:42:12;;;;;;;7.03;1.33;;;11.80;88.00;;;;;;5031715;28;20026;-32
2023/10/30 03:44:38;;;;;;;4.40;1.33;;;11.80;88.00;;;;;;5031812;28;20375;-28
2023/10/30 03:47:04;;;;;;;3.72;1.10;;;11.80;88.10;;;;;;5031455;28;20025;-32
2023/10/30 03:49:29;;;;;;;4.70;1.30;;;11.80;88.10;;;;;;5031811;28;20500;-32
2023/10/30 03:51:55;;;;;;;5.43;1.50;;;11.80;88.10;;;;;;5031541;28;20032;-29
2023/10/30 03:54:22;;;;;;;4.45;1.10;;;11.80;88.20;;;;;;5030260;28;20018;-27
2023/10/30 03:56:47;;;;;;;4.75;1.20;;;11.70;88.20;;;;;;5031466;28;20021;-30
2023/10/30 03:59:15;;;;;;;7.45;1.55;;;11.70;88.30;;;;;;5031532;28;20044;-29
2023/10/30 04:01:40;;;;;;;5.15;1.30;;;11.70;88.30;;;;;;5031549;28;20215;-29
2023/10/30 04:04:07;;;;;;;3.47;1.20;;;11.70;88.40;;;;;;5031391;28;20025;-28
2023/10/30 04:06:34;;;;;;;5.20;1.33;;;11.70;88.50;;;;;;5031394;28;20022;-33
2023/10/30 04:09:03;;;;;;;5.20;1.45;;;11.60;88.40;;;;;;5031683;28;20108;-34
2023/10/30 04:11:28;;;;;;;4.82;1.45;;;11.60;88.50;;;;;;5032282;28;20032;-30
2023/10/30 04:13:54;;;;;;;6.45;1.58;;;11.60;88.60;;;;;;5035541;28;20025;-28
2023/10/30 04:16:20;;;;;;;5.07;1.23;;;11.50;88.60;;;;;;5035410;28;20075;-30
2023/10/30 04:18:46;;;;;;;4.22;1.33;;;11.60;88.70;;;;;;5035697;28;20029;-33
2023/10/30 04:21:12;;;;;;;7.93;1.60;;;11.50;88.70;;;;;;5035535;28;20021;-30
2023/10/30 04:23:38;;;;;;;6.53;1.42;;;11.50;88.70;;;;;;5035333;28;20037;-29
2023/10/30 04:26:04;;;;;;;6.32;1.60;;;11.50;88.80;;;;;;5035350;28;20025;-30
2023/10/30 04:28:30;;;;;;;5.32;1.27;;;11.50;88.80;;;;;;5035493;28;20521;-29
2023/10/30 04:30:55;;;;;;;5.68;1.67;;;11.50;88.90;;;;;;5033902;28;20073;-29
2023/10/30 04:33:21;;;;;;;4.35;1.73;;;11.50;88.90;;;;;;5035183;28;20034;-34
2023/10/30 04:35:47;;;;;;;4.63;1.52;;;11.40;88.90;;;;;;5035167;28;20079;-28
2023/10/30 04:38:12;;;;;;;3.20;1.00;;;11.40;89.00;;;;;;5035280;28;20104;-29
2023/10/30 04:40:38;;;;;;;4.85;1.35;;;11.40;89.00;;;;;;5035020;28;20489;-29
2023/10/30 04:43:03;;;;;;;4.55;1.40;;;11.40;89.10;;;;;;5034905;28;20057;-34
2023/10/30 04:45:29;;;;;;;4.25;1.10;;;11.30;89.10;;;;;;5034888;28;20029;-28
2023/10/30 04:47:55;;;;;;;7.45;1.38;;;11.30;89.10;;;;;;5034621;28;20037;-32
2023/10/30 04:50:20;;;;;;;6.13;1.20;;;11.30;89.20;;;;;;5034972;28;20056;-31
2023/10/30 04:52:47;;;;;;;4.40;1.50;;;11.30;89.20;;;;;;5035016;28;20416;-28
2023/10/30 04:55:12;;;;;;;4.55;1.17;;;11.30;89.30;;;;;;5034682;28;20029;-35
2023/10/30 04:57:38;;;;;;;4.20;1.30;;;11.30;89.30;;;;;;5034814;28;20038;-30
2023/10/30 05:00:05;;;;;;;6.40;1.38;;;11.30;89.40;;;;;;5034686;28;20022;-30
2023/10/30 05:02:31;;;;;;;5.32;1.38;;;11.30;89.50;;;;;;5034769;28;20056;-40
2023/10/30 05:04:56;;;;;;;5.80;1.25;;;11.30;89.50;;;;;;5034691;28;20420;-29
2023/10/30 05:07:22;;;;;;;4.32;1.10;;;11.30;89.60;;;;;;5034446;28;20025;-29
2023/10/30 05:09:48;;;;;;;7.65;1.27;;;11.20;89.60;;;;;;5034623;28;20059;-32
2023/10/30 05:12:14;;;;;;;6.80;1.48;;;11.30;89.70;;;;;;5034343;28;20061;-31
2023/10/30 05:14:39;;;;;;;5.78;1.45;;;11.20;89.60;;;;;;5034358;28;20028;-30
2023/10/30 05:17:05;;;;;;;6.10;1.48;;;11.20;89.70;;;;;;5033739;28;20112;-32
2023/10/30 05:19:31;;;;;;;5.72;1.30;;;11.20;89.80;;;;;;5032457;28;20030;-28
2023/10/30 05:21:56;;;;;;;6.78;1.25;;;11.20;89.80;;;;;;5033742;28;20025;-29
2023/10/30 05:24:24;;;;;;;5.95;0.98;;;11.20;89.80;;;;;;5034129;28;20048;-30
2023/10/30 05:26:52;;;;;;;7.47;1.40;;;11.20;89.90;;;;;;5034313;28;20528;-28
2023/10/30 05:29:18;;;;;;;4.03;1.00;;;11.20;89.90;;;;;;5033947;28;20402;-26
2023/10/30 05:31:43;;;;;;;4.05;1.10;;;11.20;89.90;;;;;;5034106;28;20036;-31
2023/10/30 05:34:09;;;;;;;7.95;1.33;;;11.20;90.00;;;;;;5033990;28;20022;-31
2023/10/30 05:36:34;;;;;;;5.07;1.50;;;11.20;90.00;;;;;;5034114;28;20028;-29
2023/10/30 05:39:00;;;;;;;4.65;1.17;;;11.20;90.00;;;;;;5034037;28;20050;-28
2023/10/30 05:41:26;;;;;;;4.63;1.17;;;11.20;90.00;;;;;;5033952;28;20457;-29
2023/10/30 05:43:52;;;;;;;5.88;1.25;;;11.20;90.00;;;;;;5033823;28;20033;-39
2023/10/30 05:46:18;;;;;;;3.83;1.08;;;11.20;90.00;;;;;;5033836;28;20025;-28
2023/10/30 05:48:44;;;;;;;5.00;1.45;;;11.20;90.00;;;;;;5033900;28;20021;-32
2023/10/30 05:51:10;;;;;;;3.45;1.00;;;11.20;90.00;;;;;;5033773;28;20151;-31
2023/10/30 05:53:36;;;;;;;5.30;1.20;;;11.20;90.00;;;;;;5033674;28;20037;-31
2023/10/30 05:56:01;;;;;;;4.53;1.10;;;11.20;90.10;;;;;;5033620;28;20018;-33
2023/10/30 05:58:27;;;;;;;5.15;1.40;;;11.20;90.10;;;;;;5033834;28;20100;-30
2023/10/30 06:00:52;;;;;;;7.40;1.45;;;11.20;90.30;;;;;;5033419;28;20445;-30
2023/10/30 06:03:18;;;;;;;10.15;1.23;;;11.20;90.10;;;;;;5033187;28;20022;-30
2023/10/30 06:05:44;;;;;;;3.08;1.02;;;11.20;90.10;;;;;;5033565;28;20036;-32
2023/10/30 06:08:10;;;;;;;7.20;1.30;;;11.20;90.10;;;;;;5033220;28;20024;-32
2023/10/30 06:10:37;;;;;;;3.95;1.20;;;11.10;90.10;;;;;;5033415;28;20116;-32
2023/10/30 06:13:03;;;;;;;4.82;1.30;;;11.10;90.10;;;;;;5033003;28;20445;-31
2023/10/30 06:15:28;;;;;;;4.03;1.27;;;11.10;90.10;;;;;;5033184;28;20025;-29
2023/10/30 06:17:54;;;;;;;5.43;1.13;;;11.10;90.10;;;;;;5033091;28;20076;-30
2023/10/30 06:20:19;;;;;;;4.03;1.60;;;11.10;90.20;;;;;;5033173;28;20097;-29
2023/10/30 06:22:45;;;;;;;3.80;1.30;;;11.20;90.50;;;;;;5032865;28;20030;-40
2023/10/30 06:25:11;;;;;;;7.55;1.95;;;11.10;90.20;;;;;;5032991;28;20473;-29
2023/10/30 06:27:39;;;;;;;6.70;1.45;;;11.20;90.20;;;;;;5032982;28;20032;-30
2023/10/30 06:30:06;;;;;;;4.63;1.52;;;11.10;90.20;;;;;;5032795;28;20497;-29
2023/10/30 06:32:32;;;;;;;6.07;1.88;;;11.10;90.50;;;;;;5032871;28;20029;-29
2023/10/30 06:34:57;;;;;;;4.55;1.60;;;11.10;90.20;;;;;;5032227;28;20417;-28
2023/10/30 06:37:23;;;;;;;5.15;1.55;;;11.20;90.30;;;;;;5033102;28;20029;-30
2023/10/30 06:39:48;;;;;;;5.85;1.98;;;11.10;90.30;;;;;;5032828;28;20104;-28
2023/10/30 06:42:14;;;;;;;9.55;1.80;;;11.10;90.30;;;;;;5032487;28;20026;-31
2023/10/30 06:44:39;;;;;;;6.10;2.40;;;11.10;90.30;;;;;;5032894;28;20462;-33
2023/10/30 06:47:05;;;;;;;5.68;1.90;;;11.10;90.30;;;;;;5032404;28;20607;-29
2023/10/30 06:49:31;;;;;;;6.68;1.60;;;11.10;90.30;;;;;;5033043;28;20496;-29
2023/10/30 06:51:56;;;;;;;7.53;1.98;;;11.10;90.30;;;;;;5032657;28;20025;-29
2023/10/30 06:54:22;;;;;;;6.93;1.60;;;11.10;90.30;;;;;;5032337;28;20061;-34
2023/10/30 06:56:48;;;;;;;6.13;1.70;;;11.10;90.40;;;;;;5032519;28;20421;-28
2023/10/30 06:59:14;;;;;;;8.82;1.50;;;11.10;90.40;;;;;;5032509;28;20245;-30
2023/10/30 07:01:44;;;;;;;6.25;1.60;;;11.10;90.40;;;;;;5032805;28;20050;-30
2023/10/30 07:04:14;;;;;;;5.03;1.30;;;11.10;90.40;;;;;;5032257;28;20538;-31
2023/10/30 07:06:41;;;;;;;3.78;1.15;;;11.10;90.40;;;;;;5031928;28;20029;-39
2023/10/30 07:09:07;;;;;;;18.17;1.92;;;11.10;90.40;;;;;;5032545;28;20492;-31
2023/10/30 07:11:37;;;;;;;15.25;1.90;;;11.20;90.40;;;;;;5032117;28;20133;-28
2023/10/30 07:14:03;;;;;;;6.80;1.30;;;11.20;90.40;;;;;;5031863;28;20022;-29
2023/10/30 07:16:33;;;;;;;6.70;1.30;;;11.20;90.40;;;;;;5031483;28;20052;-34
2023/10/30 07:18:59;;;;;;;4.85;1.52;;;11.20;90.30;;;;;;5031938;28;20026;-28
2023/10/30 07:21:25;;;;;;;5.88;1.10;;;11.30;90.40;;;;;;5032105;28;20449;-29
2023/10/30 07:23:52;;;;;;;5.07;1.40;;;11.30;90.30;;;;;;5031826;28;20025;-28
2023/10/30 07:26:18;;;;;;;6.90;1.50;;;11.40;90.40;;;;;;5030842;28;20025;-29
2023/10/30 07:28:44;;;;;;;5.97;1.30;;;11.40;90.30;;;;;;5030376;28;20025;-28
2023/10/30 07:31:10;;;;;;;6.72;1.50;;;11.50;90.30;;;;;;5031709;28;20033;-28
2023/10/30 07:33:35;;;;;;;6.63;1.42;;;11.50;90.30;;;;;;5031938;28;20052;-33
2023/10/30 07:36:01;;;;;;;7.43;1.77;;;11.50;90.30;;;;;;5031482;28;20024;-30
2023/10/30 07:38:27;;;;;;;6.43;1.50;;;11.60;90.30;;;;;;5032023;28;20433;-31
2023/10/30 07:40:53;;;;;;;7.05;1.25;;;11.60;90.20;;;;;;5031823;28;20049;-34
2023/10/30 07:43:21;;;;;;;4.07;1.25;;;11.60;90.20;;;;;;5032009;28;20393;-29
2023/10/30 07:45:47;;;;;;;5.45;1.50;;;11.70;90.20;;;;;;5031447;28;20080;-30
2023/10/30 07:48:12;;;;;;;5.40;1.25;;;11.70;90.20;;;;;;5031387;28;20029;-30
2023/10/30 07:50:38;;;;;;;5.53;1.63;;;11.80;90.20;;;;;;5031604;28;20517;-34
2023/10/30 07:53:04;;;;;;;4.78;1.35;;;11.80;90.20;;;;;;5031525;28;20036;-28
2023/10/30 07:55:30;;;;;;;7.00;1.38;;;11.90;90.20;;;;;;5031992;28;20018;-32
2023/10/30 07:57:56;;;;;;;4.97;1.40;;;11.90;90.20;;;;;;5031962;28;20092;-31
2023/10/30 08:00:21;;;;;;;4.93;1.75;;;11.90;90.10;;;;;;5031898;28;20090;-33
2023/10/30 08:02:47;;;;;;;4.30;1.40;;;11.90;90.10;;;;;;5031417;28;20022;-31
2023/10/30 08:05:15;;;;;;;5.88;1.67;;;11.90;90.10;;;;;;5031825;28;20033;-29
2023/10/30 08:07:44;;;;;;;6.07;1.50;;;12.00;90.10;;;;;;5031591;28;20029;-29
2023/10/30 08:10:11;;;;;;;6.47;2.38;;;12.00;90.10;;;;;;5031834;28;20354;-29
2023/10/30 08:12:37;;;;;;;7.00;1.65;;;12.10;90.10;;;;;;5031495;28;20390;-31
2023/10/30 08:15:03;;;;;;;5.63;1.58;;;12.10;90.10;;;;;;5031855;28;20021;-30
2023/10/30 08:17:29;;;;;;;4.35;1.38;;;12.10;90.00;;;;;;5031330;28;20017;-29
2023/10/30 08:19:54;;;;;;;7.25;1.50;;;12.20;90.00;;;;;;5031700;28;20017;-29
2023/10/30 08:22:21;;;;;;;5.75;1.60;;;12.20;90.00;;;;;;5031406;28;20021;-30
2023/10/30 08:24:46;;;;;;;5.90;1.25;;;12.30;90.00;;;;;;5031569;28;20497;-30
2023/10/30 08:27:12;;;;;;;5.20;1.90;;;12.30;89.90;;;;;;5031212;28;20087;-28
2023/10/30 08:29:37;;;;;;;6.55;1.20;;;12.40;89.90;;;;;;5031160;28;20486;-28
2023/10/30 08:32:03;;;;;;;4.68;1.55;;;12.40;89.70;;;;;;5031166;28;20467;-34
2023/10/30 08:34:29;;;;;;;8.60;2.17;;;12.50;89.60;;;;;;5031324;28;20076;-34
2023/10/30 08:36:54;;;;;;;5.50;1.50;;;12.50;89.50;;;;;;5031068;28;20028;-34
2023/10/30 08:39:20;;;;;;;7.53;1.63;;;12.70;89.60;;;;;;5031081;28;20033;-33
2023/10/30 08:41:46;;;;;;;8.35;1.70;;;12.70;89.40;;;;;;5031116;28;20032;-27
2023/10/30 08:44:11;;;;;;;7.97;1.83;;;12.70;89.30;;;;;;5031061;28;20097;-27
2023/10/30 08:46:37;;;;;;;4.20;1.60;;;12.80;89.20;;;;;;5031107;28;20028;-30
2023/10/30 08:49:04;;;;;;;7.13;2.00;;;12.90;89.20;;;;;;5030936;28;20430;-29
2023/10/30 08:51:29;;;;;;;8.15;1.60;;;12.90;89.10;;;;;;5031536;28;20462;-27
2023/10/30 08:53:55;;;;;;;4.18;1.40;;;13.00;89.00;;;;;;5030737;28;20029;-34
2023/10/30 08:56:20;;;;;;;4.47;1.38;;;13.10;88.90;;;;;;5031206;28;20606;-28
2023/10/30 08:58:47;;;;;;;6.50;1.55;;;13.20;88.70;;;;;;5033792;28;20025;-28
2023/10/30 09:01:12;;;;;;;5.07;1.70;;;13.20;88.60;;;;;;5034414;28;20061;-28
2023/10/30 09:03:41;;;;;;;4.55;1.40;;;13.30;88.60;;;;;;5034761;28;20072;-28
2023/10/30 09:06:07;;;;;;;4.35;1.38;;;13.30;88.40;;;;;;5034493;28;20064;-30
2023/10/30 09:08:32;;;;;;;3.47;1.40;;;13.40;88.40;;;;;;5034520;28;20098;-28
2023/10/30 09:10:58;;;;;;;4.45;1.38;;;13.40;88.20;;;;;;5034444;28;20105;-28
2023/10/30 09:13:24;;;;;;;3.42;1.50;;;13.50;88.10;;;;;;5032846;28;20545;-28
2023/10/30 09:15:49;;;;;;;4.90;1.50;;;13.60;88.00;;;;;;5034421;28;20024;-34
2023/10/30 09:18:15;;;;;;;5.22;1.83;;;13.60;87.90;;;;;;5034381;28;20029;-29
2023/10/30 09:20:41;;;;;;;5.78;1.70;;;13.60;87.80;;;;;;5034543;28;20013;-34
2023/10/30 09:23:07;;;;;;;4.85;1.73;;;13.60;87.70;;;;;;5033936;28;20470;-32
2023/10/30 09:25:33;;;;;;;7.78;1.50;;;13.70;87.70;;;;;;5034302;28;20394;-30
2023/10/30 09:28:00;;;;;;;8.48;1.52;;;13.80;87.60;;;;;;5034511;28;20030;-28
2023/10/30 09:30:30;;;;;;;5.93;1.35;;;13.80;87.50;;;;;;5033873;28;20042;-30
2023/10/30 09:32:59;;;;;;;3.15;1.30;;;13.80;87.40;;;;;;5034162;28;20079;-29
2023/10/30 09:35:29;;;;;;;4.00;1.13;;;13.90;87.40;;;;;;5032602;28;20450;-32
2023/10/30 09:37:55;;;;;;;7.38;1.70;;;13.90;87.30;;;;;;5033900;28;20017;-35
2023/10/30 09:40:22;;;;;;;5.63;1.52;;;14.00;87.20;;;;;;5034064;28;20531;-28
2023/10/30 09:42:52;;;;;;;7.05;1.23;;;14.00;87.10;;;;;;5033716;28;20390;-31
2023/10/30 09:45:22;;;;;;;4.50;1.40;;;14.10;87.00;;;;;;5034199;28;20032;-33
2023/10/30 09:47:48;;;;;;;5.35;1.58;;;14.00;86.80;;;;;;5033956;28;20413;-32
2023/10/30 09:50:14;;;;;;;5.60;1.50;;;14.10;86.80;;;;;;5033847;28;20083;-29
2023/10/30 09:52:40;;;;;;;6.97;1.50;;;14.10;86.60;;;;;;5033696;28;20036;-27
2023/10/30 09:55:11;;;;;;;7.20;1.75;;;14.10;86.60;;;;;;5033695;28;20029;-30
2023/10/30 09:57:37;;;;;;;6.35;1.75;;;14.20;87.10;;;;;;5033665;28;20064;-28
2023/10/30 10:00:03;;;;;;;9.73;1.75;;;14.20;86.40;;;;;;5033865;28;20017;-30
2023/10/30 10:02:28;;;;;;;5.22;1.33;;;14.30;86.40;;;;;;5033813;28;20492;-29
2023/10/30 10:04:56;;;;;;;4.30;1.40;;;14.40;86.30;;;;;;5033732;28;20064;-28
2023/10/30 10:07:23;;;;;;;6.70;1.67;;;14.40;86.30;;;;;;5033493;28;20029;-29
2023/10/30 10:10:00;;;;;;;9.32;1.63;;;14.40;86.10;;;;;;5032446;28;20025;-28
2023/10/30 10:12:26;;;;;;;7.15;1.38;;;14.50;86.10;;;;;;5033561;28;20470;-33
2023/10/30 10:14:52;;;;;;;3.80;1.48;;;14.50;86.10;;;;;;5033324;28;20024;-27
2023/10/30 10:17:17;;;;;;;5.13;1.60;;;14.50;86.10;;;;;;5033124;28;20025;-28
2023/10/30 10:19:47;;;;;;;6.10;1.88;;;14.40;86.00;;;;;;5033132;28;20033;-30
2023/10/30 10:22:33;;;;;;;4.45;1.90;;;14.40;86.00;;;;;;5033124;28;20108;-31
2023/10/30 10:25:02;;;;;;;4.47;1.40;;;14.40;86.00;;;;;;5032820;28;20099;-34
2023/10/30 10:27:29;;;;;;;6.20;2.00;;;14.40;86.00;;;;;;5032928;28;20021;-29
2023/10/30 10:29:56;;;;;;;7.10;1.50;;;14.40;86.00;;;;;;5032900;28;20049;-27
2023/10/30 10:32:26;;;;;;;5.47;1.65;;;14.40;86.00;;;;;;5032790;28;20535;-30
2023/10/30 10:35:05;;;;;;;5.28;1.60;;;14.40;85.90;;;;;;5032785;28;20104;-32
2023/10/30 10:37:31;;;;;;;4.35;1.75;;;14.40;85.90;;;;;;5033392;28;20026;-31
2023/10/30 10:39:57;;;;;;;5.30;1.38;;;14.40;85.90;;;;;;5032507;28;20025;-27
2023/10/30 10:42:24;;;;;;;4.07;1.50;;;14.40;85.80;;;;;;5032613;28;20022;-31
2023/10/30 10:44:54;;;;;;;3.72;1.60;;;14.50;85.90;;;;;;5032635;28;20508;-28
2023/10/30 10:47:21;;;;;;;3.67;1.40;;;14.50;85.80;;;;;;5032714;28;20025;-29
2023/10/30 10:49:46;;;;;;;4.97;1.50;;;14.50;85.70;;;;;;5032996;28;20393;-27
2023/10/30 10:52:17;;;;;;;6.95;1.42;;;14.50;85.70;;;;;;5032594;28;20030;-30
2023/10/30 10:54:52;;;;;;;6.72;1.55;;;14.60;85.70;;;;;;5032547;28;20470;-30
2023/10/30 10:57:20;;;;;;;9.25;1.40;;;14.60;85.70;;;;;;5032818;28;20013;-30
2023/10/30 10:59:50;;;;;;;5.70;1.40;;;14.60;85.70;;;;;;5032771;28;20022;-31
2023/10/30 11:02:21;;;;;;;8.18;1.63;;;14.60;85.70;;;;;;5032022;28;20036;-29
2023/10/30 11:04:48;;;;;;;4.70;1.58;;;14.70;85.70;;;;;;5032469;28;20105;-34
2023/10/30 11:07:17;;;;;;;7.40;2.40;;;14.70;85.50;;;;;;5032313;28;20018;-28
2023/10/30 11:09:49;;;;;;;4.65;1.42;;;14.80;85.50;;;;;;5032323;28;20026;-33
2023/10/30 11:12:37;;;;;;;3.83;1.05;;;14.80;85.30;;;;;;5030808;28;20036;-34
2023/10/30 11:15:25;;;;;;;3.70;1.25;;;14.90;85.20;;;;;;5032261;28;20026;-32
2023/10/30 11:18:24;;;;;;;6.40;1.55;;;14.90;85.00;;;;;;5032258;28;20044;-31
2023/10/30 11:21:11;;;;;;;4.20;1.65;;;15.00;85.00;;;;;;5032000;28;20056;-34
2023/10/30 11:23:53;;;;;;;3.53;1.52;;;15.00;84.90;;;;;;5031906;28;20025;-27
2023/10/30 11:26:35;;;;;;;4.43;1.50;;;15.00;84.80;;;;;;5032245;28;20044;-31
2023/10/30 11:29:21;;;;;;;4.82;1.30;;;15.00;84.80;;;;;;5031898;28;20111;-32
2023/10/30 11:31:54;;;;;;;4.20;1.50;;;15.00;84.80;;;;;;5031582;28;20033;-33
2023/10/30 11:34:49;;;;;;;4.93;1.33;;;15.00;84.80;;;;;;5031714;28;20022;-30
2023/10/30 11:37:18;;;;;;;4.97;1.40;;;15.10;84.80;;;;;;5032256;28;20037;-32
2023/10/30 11:39:45;;;;;;;9.45;2.13;;;15.10;84.70;;;;;;5031888;28;20113;-31
2023/10/30 11:42:24;;;;;;;7.50;1.80;;;15.20;84.70;;;;;;5031804;28;20029;-30
2023/10/30 11:44:50;;;;;;;3.88;1.42;;;15.20;84.50;;;;;;5031849;28;20473;-29
2023/10/30 11:47:22;;;;;;;4.55;1.50;;;15.30;84.50;;;;;;5030093;28;20057;-34
2023/10/30 11:49:48;;;;;;;7.23;1.60;;;15.30;84.30;;;;;;5031627;28;20021;-32
2023/10/30 11:52:15;;;;;;;5.50;1.50;;;15.30;84.30;;;;;;5031553;28;20291;-31
2023/10/30 11:54:43;;;;;;;5.65;1.40;;;15.30;84.20;;;;;;5031507;28;20022;-36
2023/10/30 11:57:09;;;;;;;6.28;1.60;;;15.40;84.10;;;;;;5031559;28;20025;-34
2023/10/30 11:59:36;;;;;;;5.00;1.50;;;15.40;84.20;;;;;;5031341;28;20489;-30
2023/10/30 12:02:01;;;;;;;3.35;1.17;;;15.40;84.20;;;;;;5031701;28;20060;-30
2023/10/30 12:04:27;;;;;;;5.63;1.42;;;15.40;84.20;;;;;;5031433;28;20033;-32
2023/10/30 12:06:54;;;;;;;4.43;1.40;;;15.40;84.20;;;;;;5031376;28;20041;-30
2023/10/30 12:09:21;;;;;;;4.38;1.60;;;15.40;84.30;;;;;;5031941;28;20029;-27
2023/10/30 12:11:47;;;;;;;4.53;1.80;;;15.40;84.40;;;;;;5031500;28;20444;-33
2023/10/30 12:14:13;;;;;;;5.38;1.52;;;15.30;84.50;;;;;;5031270;28;20100;-30
2023/10/30 12:16:45;;;;;;;4.95;1.40;;;15.30;84.70;;;;;;5031282;28;20505;-28
2023/10/30 12:19:11;;;;;;;4.50;1.20;;;15.20;84.80;;;;;;5031577;28;20042;-30
2023/10/30 12:21:36;;;;;;;4.22;1.27;;;15.20;85.00;;;;;;5031270;28;20102;-28
2023/10/30 12:24:02;;;;;;;5.13;1.55;;;15.20;85.10;;;;;;5031356;28;20017;-33
2023/10/30 12:26:28;;;;;;;4.97;1.40;;;15.20;85.20;;;;;;5031515;28;20032;-34
2023/10/30 12:29:00;;;;;;;5.10;1.58;;;15.20;85.30;;;;;;5031297;28;20478;-33
2023/10/30 12:31:26;;;;;;;5.43;1.58;;;15.20;85.30;;;;;;5031380;28;20037;-29
2023/10/30 12:34:12;;;;;;;5.93;1.88;;;15.20;85.40;;;;;;5034444;28;20036;-30
2023/10/30 12:36:38;;;;;;;7.50;1.30;;;15.20;85.40;;;;;;5035309;28;20034;-28
2023/10/30 12:39:17;;;;;;;5.22;1.63;;;15.20;85.50;;;;;;5034995;28;20045;-30
2023/10/30 12:41:44;;;;;;;4.00;1.45;;;15.20;85.50;;;;;;5034764;28;20033;-28
2023/10/30 12:44:10;;;;;;;4.68;1.35;;;15.20;85.50;;;;;;5035309;28;20014;-29